TimeCST,TemperatureF,Dew PointF,Humidity,Sea Level PressureIn,VisibilityMPH,Wind Direction,Wind SpeedMPH,Gust SpeedMPH,PrecipitationIn,Events,Conditions,WindDirDegrees,DateUTC
6:00 AM,71,62,65,,6,ESE,8.1,,,,Overcast,110,2013-06-10 12:00:00
6:00 AM,71.6,62.6,73,29.99,-9999.0,ESE,8.1,-,N/A,,Clear,110,2013-06-10 12:00:00
7:00 AM,71.6,62.6,73,30.01,6.2,ESE,9.2,-,N/A,,Mostly Cloudy,110,2013-06-10 13:00:00
8:00 AM,73.4,62.6,69,30.02,6.2,ESE,9.2,-,N/A,,Mostly Cloudy,110,2013-06-10 14:00:00
9:00 AM,77,63,53,,6,East,9.2,,,,Scattered Clouds,90,2013-06-10 15:00:00
9:00 AM,77.0,62.6,61,30.02,6.2,East,9.2,-,N/A,,Mostly Cloudy,90,2013-06-10 15:00:00
10:00 AM,78.8,62.6,57,30.01,6.2,East,8.1,-,N/A,,Mostly Cloudy,90,2013-06-10 16:00:00
11:00 AM,80.6,62.6,54,30.01,6.2,ENE,13.8,-,N/A,,Mostly Cloudy,70,2013-06-10 17:00:00
12:00 PM,79,63,49,,6,East,11.5,,,,Scattered Clouds,80,2013-06-10 18:00:00
12:00 PM,78.8,62.6,57,30.01,6.2,East,11.5,-,N/A,,Drizzle,80,2013-06-10 18:00:00
12:47 PM,78.8,64.4,61,29.98,6.2,ESE,6.9,-,N/A,Rain-Thunderstorm,Rain,110,2013-06-10 18:47:00
1:00 PM,77.0,66.2,69,29.98,6.2,East,13.8,-,N/A,Rain-Thunderstorm,Rain,90,2013-06-10 19:00:00
2:00 PM,75.2,66.2,73,29.97,6.2,East,6.9,-,N/A,Rain,Rain,100,2013-06-10 20:00:00
2:23 PM,71.6,66.2,83,29.97,3.1,ENE,11.5,-,N/A,Rain,Rain,70,2013-06-10 20:23:00
2:38 PM,71.6,66.2,83,29.99,2.5,East,12.7,-,N/A,Rain-Thunderstorm,Rain,80,2013-06-10 20:38:00
3:00 PM,70,68,91,,3,ESE,4.6,,,Rain,Light Rain,110,2013-06-10 21:00:00
3:00 PM,69.8,68.0,94,29.98,3.1,ESE,4.6,-,N/A,Rain-Thunderstorm,Rain,110,2013-06-10 21:00:00
3:05 PM,69.8,68.0,94,29.99,2.2,SSE,3.5,-,N/A,Rain,Rain,160,2013-06-10 21:05:00
3:12 PM,68.0,68.0,100,30.00,1.2,West,10.4,-,N/A,Rain,Rain,280,2013-06-10 21:12:00
3:22 PM,68.0,68.0,100,30.00,1.2,West,10.4,-,N/A,Rain,Rain,280,2013-06-10 21:22:00
4:00 PM,69.8,68.0,94,30.01,1.9,West,2.3,-,N/A,Rain-Thunderstorm,Rain,260,2013-06-10 22:00:00
4:20 PM,69.8,69.8,100,30.01,3.1,ESE,1.2,-,N/A,Rain,Rain,120,2013-06-10 22:20:00
5:00 PM,68.0,64.4,88,30.00,6.2,ESE,8.1,-,N/A,,Mostly Cloudy,120,2013-06-10 23:00:00
6:00 PM,69,63,77,,6,East,6.9,,,,Overcast,90,2013-06-11 00:00:00
6:00 PM,69.8,62.6,78,30.01,-9999.0,East,6.9,-,N/A,,Clear,90,2013-06-11 00:00:00